| Temperature (°F) | Max | Average | Min |
|---|---|---|---|
| Max Temperature | 72 | 54.74 | 45 |
| Avg Temperature | 62.38 | 49.13 | 41.5 |
| Min Temperature | 56 | 43.55 | 36 |
| Dew Point (°F) | Max | Average | Min |
|---|---|---|---|
| Dew Point | 53 | 35.41 | 0 |
| Precipitation (in) | Max | Average | Min | Sum |
|---|---|---|---|---|
| Precipitation | 0.00 | 0.00 | 0.00 | 0.00 |
| Snowdepth | 0.00 | 0.00 | 0.00 | 0.00 |
| Wind (mph) | Max | Average | Min |
|---|---|---|---|
| Wind | 32 | 8.11 | 0 |
| Gust Wind | 0 | 0 | 0 |
| Sea Level Pressure (in) | Max | Average | Min |
|---|---|---|---|
| Sea Level Pressure | 30.61 | 30.11 | 29.57 |
| Date | Temperature (°F) | Dew Point (°F) | Humidity (%) | Wind Speed (mph) | Pressure (in) | Precipitation (in) | ||||||||||
|---|---|---|---|---|---|---|---|---|---|---|---|---|---|---|---|---|
| Max | Avg | Min | Max | Avg | Min | Max | Avg | Min | Max | Avg | Min | Max | Avg | Min | ||
| 12/31/1967 | 50 | 44.0 | 39 | 44 | 38.5 | 33 | 89 | 80.8 | 76 | 6 | 4.0 | 0 | 30.2 | 30.2 | 30.1 | 0.00 |
| 12/30/1967 | 50 | 45.6 | 42 | 43 | 39.6 | 33 | 96 | 80.0 | 68 | 6 | 2.8 | 0 | 30.2 | 30.2 | 30.1 | 0.00 |
| 12/29/1967 | 61 | 56.3 | 50 | 39 | 34.5 | 31 | 59 | 45.0 | 32 | 12 | 4.4 | 0 | 30.2 | 30.1 | 30.0 | 0.00 |
| 12/28/1967 | 72 | 56.1 | 45 | 45 | 41.4 | 37 | 83 | 60.0 | 29 | 20 | 7.1 | 0 | 30.1 | 30.0 | 29.9 | 0.00 |
| 12/27/1967 | 70 | 61.9 | 52 | 46 | 44.5 | 43 | 74 | 53.9 | 41 | 23 | 10.3 | 5 | 30.2 | 30.1 | 30.1 | 0.00 |
| 12/26/1967 | 67 | 62.4 | 56 | 45 | 39.9 | 34 | 55 | 44.3 | 33 | 13 | 8.4 | 3 | 30.2 | 30.1 | 30.1 | 0.00 |
| 12/25/1967 | 70 | 60.5 | 52 | 43 | 39.3 | 37 | 66 | 46.9 | 31 | 16 | 8.5 | 0 | 30.3 | 30.2 | 30.2 | 0.00 |
| 12/24/1967 | 66 | 57.1 | 49 | 39 | 37.6 | 36 | 69 | 49.9 | 33 | 17 | 7.4 | 0 | 30.4 | 30.4 | 30.3 | 0.00 |
| 12/23/1967 | 56 | 47.9 | 40 | 41 | 36.4 | 30 | 79 | 64.9 | 55 | 8 | 2.6 | 0 | 30.5 | 30.5 | 30.4 | 0.00 |
| 12/22/1967 | 48 | 44.5 | 40 | 39 | 34.5 | 31 | 73 | 66.6 | 54 | 9 | 6.8 | 0 | 30.6 | 30.5 | 30.5 | 0.00 |
| 12/21/1967 | 48 | 42.4 | 37 | 40 | 34.9 | 33 | 86 | 74.3 | 63 | 9 | 6.3 | 0 | 30.5 | 30.4 | 30.3 | 0.00 |
| 12/20/1967 | 46 | 41.9 | 37 | 39 | 36.3 | 33 | 83 | 78.9 | 76 | 9 | 5.5 | 0 | 30.2 | 30.1 | 29.9 | 0.00 |
| 12/19/1967 | 46 | 41.9 | 38 | 37 | 34.9 | 33 | 89 | 77.1 | 61 | 7 | 5.6 | 3 | 29.9 | 29.8 | 29.7 | 0.00 |
| 12/18/1967 | 49 | 46.1 | 41 | 42 | 38.1 | 36 | 82 | 73.9 | 68 | 17 | 10.4 | 7 | 29.7 | 29.6 | 29.6 | 0.00 |
| 12/17/1967 | 46 | 43.5 | 40 | 39 | 31.7 | 28 | 80 | 63.8 | 58 | 20 | 13.3 | 8 | 29.9 | 29.8 | 29.6 | 0.00 |
| 12/16/1967 | 48 | 41.6 | 37 | 38 | 30.1 | 24 | 76 | 64.0 | 53 | 15 | 5.3 | 0 | 29.9 | 29.9 | 29.8 | 0.00 |
| 12/15/1967 | 51 | 43.6 | 37 | 36 | 24.1 | 9 | 76 | 48.3 | 28 | 9 | 5.5 | 0 | 30.0 | 29.9 | 29.9 | 0.00 |
| 12/14/1967 | 46 | 41.5 | 36 | 6 | 3.4 | 0 | 24 | 20.8 | 18 | 23 | 18.1 | 14 | 30.0 | 30.0 | 29.9 | 0.00 |
| 12/13/1967 | 45 | 42.3 | 40 | 9 | 6.3 | 3 | 26 | 22.9 | 19 | 32 | 24.8 | 14 | 30.1 | 30.0 | 30.0 | 0.00 |
| 12/12/1967 | 54 | 48.3 | 43 | 38 | 18.1 | 9 | 82 | 35.8 | 17 | 29 | 14.4 | 0 | 30.1 | 30.1 | 30.0 | 0.00 |
| 12/11/1967 | 53 | 48.8 | 46 | 45 | 43.0 | 41 | 90 | 80.9 | 71 | 9 | 3.4 | 0 | 30.2 | 30.1 | 30.0 | 0.00 |
| 12/10/1967 | 55 | 47.8 | 42 | 45 | 39.4 | 33 | 83 | 73.1 | 64 | 10 | 4.6 | 0 | 30.4 | 30.3 | 30.2 | 0.00 |
| 12/9/1967 | 60 | 51.8 | 46 | 35 | 29.8 | 26 | 61 | 44.4 | 31 | 14 | 6.1 | 0 | 30.3 | 30.3 | 30.2 | 0.00 |
| 12/8/1967 | 55 | 48.4 | 43 | 36 | 34.8 | 33 | 74 | 60.5 | 45 | 12 | 6.4 | 0 | 30.2 | 30.2 | 30.2 | 0.00 |
| 12/7/1967 | 55 | 52.1 | 47 | 49 | 41.8 | 37 | 96 | 68.8 | 55 | 23 | 12.6 | 7 | 30.2 | 30.1 | 29.9 | 0.00 |
| 12/6/1967 | 51 | 46.9 | 40 | 44 | 38.5 | 36 | 89 | 73.4 | 61 | 15 | 6.0 | 3 | 30.3 | 30.2 | 30.1 | 0.00 |
| 12/5/1967 | 56 | 53.0 | 48 | 53 | 43.8 | 38 | 93 | 71.6 | 55 | 17 | 9.6 | 5 | 30.3 | 30.2 | 30.0 | 0.00 |
| 12/4/1967 | 58 | 54.8 | 52 | 53 | 51.8 | 49 | 100 | 90.4 | 72 | 21 | 10.0 | 0 | 30.0 | 29.9 | 29.9 | 0.00 |
| 12/3/1967 | 55 | 52.9 | 51 | 53 | 49.6 | 45 | 100 | 89.0 | 80 | 17 | 10.5 | 5 | 30.0 | 29.9 | 29.9 | 0.00 |
| 12/2/1967 | 57 | 49.5 | 42 | 49 | 42.4 | 36 | 86 | 76.8 | 62 | 10 | 5.5 | 0 | 30.3 | 30.2 | 30.0 | 0.00 |
| 12/1/1967 | 53 | 47.9 | 42 | 44 | 38.9 | 34 | 80 | 71.1 | 63 | 8 | 5.5 | 3 | 30.3 | 30.2 | 30.1 | 0.00 |